createdAt,value
2023-05-11T00:00:22.790Z,15.53
2023-05-11T00:03:15.507Z,15.52
2023-05-11T00:05:50.303Z,15.51
2023-05-11T00:08:22.096Z,15.51
2023-05-11T00:10:52.756Z,15.49
2023-05-11T00:13:23.568Z,15.49
2023-05-11T00:15:54.430Z,15.47
2023-05-11T00:18:25.672Z,15.46
2023-05-11T00:20:57.218Z,15.43
2023-05-11T00:23:27.554Z,15.39
2023-05-11T00:25:58.012Z,15.35
2023-05-11T00:28:28.697Z,15.32
2023-05-11T00:30:59.949Z,15.31
2023-05-11T00:33:30.489Z,15.33
2023-05-11T00:36:04.219Z,15.37
2023-05-11T00:38:39.148Z,15.40
2023-05-11T00:41:10.179Z,15.42
2023-05-11T00:43:40.461Z,15.43
2023-05-11T00:46:11.336Z,15.44
2023-05-11T00:48:43.703Z,15.45
2023-05-11T00:51:14.782Z,15.46
2023-05-11T00:53:45.512Z,15.45
2023-05-11T00:56:16.420Z,15.43
2023-05-11T00:58:47.153Z,15.38
2023-05-11T01:01:19.006Z,15.34
2023-05-11T01:03:52.853Z,15.33
2023-05-11T01:06:30.227Z,15.32
2023-05-11T01:09:07.250Z,15.31
2023-05-11T01:11:43.083Z,15.30
2023-05-11T01:14:17.116Z,15.30
2023-05-11T01:16:49.321Z,15.29
2023-05-11T01:19:41.449Z,15.30
2023-05-11T01:22:32.616Z,15.33
2023-05-11T01:25:13.473Z,15.36
2023-05-11T01:28:07.261Z,15.39
2023-05-11T01:30:43.163Z,15.41
2023-05-11T01:33:17.990Z,15.40
2023-05-11T01:35:53.179Z,15.39
2023-05-11T01:38:24.980Z,15.40
2023-05-11T01:40:59.469Z,15.40
2023-05-11T01:43:30.624Z,15.38
2023-05-11T01:46:02.269Z,15.35
2023-05-11T01:48:36.387Z,15.32
2023-05-11T01:51:07.452Z,15.31
2023-05-11T01:53:43.077Z,15.30
2023-05-11T01:56:14.657Z,15.29
2023-05-11T01:58:45.771Z,15.29
2023-05-11T02:01:17.718Z,15.30
2023-05-11T02:03:50.586Z,15.33
2023-05-11T02:06:22.182Z,15.39
2023-05-11T02:08:52.898Z,15.46
2023-05-11T02:11:24.738Z,15.53
2023-05-11T02:13:58.118Z,15.62
2023-05-11T02:16:29.401Z,15.72
2023-05-11T02:19:00.848Z,15.82
2023-05-11T02:21:34.339Z,15.91
2023-05-11T02:24:07.502Z,16.00
2023-05-11T02:26:38.786Z,16.05
2023-05-11T02:29:08.989Z,16.09
2023-05-11T02:31:43.264Z,16.11
2023-05-11T02:34:20.639Z,16.10
2023-05-11T02:36:52.197Z,16.13
2023-05-11T02:39:22.789Z,16.18
2023-05-11T02:41:57.705Z,16.21
2023-05-11T02:44:31.913Z,16.23
2023-05-11T02:47:04.414Z,16.27
2023-05-11T02:49:38.836Z,16.32
2023-05-11T02:52:09.507Z,16.36
2023-05-11T02:54:41.140Z,16.44
2023-05-11T02:57:11.496Z,16.56
2023-05-11T02:59:42.081Z,16.63
2023-05-11T03:02:13.021Z,16.67
2023-05-11T03:04:44.081Z,16.69
2023-05-11T03:07:14.771Z,16.70
2023-05-11T03:09:45.504Z,16.71
2023-05-11T03:12:16.420Z,16.72
2023-05-11T03:14:46.783Z,16.77
2023-05-11T03:17:18.107Z,16.81
2023-05-11T03:19:49.411Z,16.85
2023-05-11T03:22:19.743Z,16.89
2023-05-11T03:24:53.108Z,16.96
2023-05-11T03:27:23.978Z,17.05
2023-05-11T03:29:54.640Z,17.12
2023-05-11T03:32:25.307Z,17.16
2023-05-11T03:34:56.013Z,17.19
2023-05-11T03:37:26.518Z,17.25
2023-05-11T03:39:59.494Z,17.38
2023-05-11T03:42:31.022Z,17.48
2023-05-11T03:45:02.485Z,17.51
2023-05-11T03:47:34.569Z,17.48
2023-05-11T03:50:07.130Z,17.43
2023-05-11T03:52:37.803Z,17.42
2023-05-11T03:55:10.819Z,17.37
2023-05-11T03:57:41.546Z,17.29
2023-05-11T04:00:13.920Z,17.28
2023-05-11T04:02:44.282Z,17.37
2023-05-11T04:05:15.606Z,17.52
2023-05-11T04:07:46.044Z,17.70
2023-05-11T04:10:16.908Z,17.85
2023-05-11T04:12:48.150Z,18.00
2023-05-11T04:15:18.827Z,18.14
2023-05-11T04:17:49.363Z,18.28
2023-05-11T04:20:19.990Z,18.29
2023-05-11T04:22:50.759Z,18.32
2023-05-11T04:25:21.184Z,18.45
2023-05-11T04:27:51.631Z,18.67
2023-05-11T04:30:22.200Z,18.94
2023-05-11T04:32:52.473Z,19.22
2023-05-11T04:35:25.248Z,19.64
2023-05-11T04:37:55.410Z,20.10
2023-05-11T04:40:26.797Z,20.34
2023-05-11T04:42:57.607Z,20.27
2023-05-11T04:45:28.099Z,20.33
2023-05-11T04:47:59.048Z,20.45
2023-05-11T04:50:29.780Z,20.66
2023-05-11T04:53:00.089Z,21.21
2023-05-11T04:55:30.365Z,21.59
2023-05-11T04:58:00.779Z,21.73
2023-05-11T05:00:31.310Z,21.77
2023-05-11T05:03:01.726Z,22.03
2023-05-11T05:05:32.489Z,23.22
2023-05-11T05:08:02.681Z,24.82
2023-05-11T05:10:33.350Z,26.86
2023-05-11T05:13:03.566Z,29.17
2023-05-11T05:15:34.255Z,30.45
2023-05-11T05:18:04.794Z,30.57
2023-05-11T05:20:35.424Z,31.09
2023-05-11T05:23:05.888Z,32.66
2023-05-11T05:25:36.322Z,33.59
2023-05-11T05:28:06.848Z,33.66
2023-05-11T05:30:37.196Z,34.15
2023-05-11T05:33:07.927Z,35.74
2023-05-11T05:35:38.275Z,36.52
2023-05-11T05:38:08.768Z,36.63
2023-05-11T05:40:39.751Z,37.71
2023-05-11T05:43:09.933Z,37.06
2023-05-11T05:45:40.372Z,35.60
2023-05-11T05:48:10.573Z,34.34
2023-05-11T05:50:41.135Z,34.61
2023-05-11T05:53:11.850Z,35.39
2023-05-11T05:55:42.133Z,36.16
2023-05-11T05:58:12.682Z,36.80
2023-05-11T06:00:43.005Z,37.07
2023-05-11T06:03:13.276Z,36.45
2023-05-11T06:05:43.781Z,35.31
2023-05-11T06:08:14.139Z,34.84
2023-05-11T06:10:44.434Z,34.58
2023-05-11T06:13:14.662Z,34.99
2023-05-11T06:15:45.090Z,36.84
2023-05-11T06:18:15.452Z,37.08
2023-05-11T06:20:46.020Z,36.17
2023-05-11T06:23:16.518Z,35.11
2023-05-11T06:25:47.161Z,34.18
2023-05-11T06:28:18.244Z,33.71
2023-05-11T06:30:48.433Z,33.45
2023-05-11T06:33:18.531Z,33.17
2023-05-11T06:35:48.932Z,33.22
2023-05-11T06:38:19.314Z,32.81
2023-05-11T06:40:54.001Z,32.40
2023-05-11T06:43:24.364Z,32.58
2023-05-11T06:45:54.924Z,33.65
2023-05-11T06:48:26.084Z,34.95
2023-05-11T06:50:56.419Z,35.60
2023-05-11T06:53:26.782Z,37.22
2023-05-11T06:55:57.004Z,38.93
2023-05-11T06:58:27.892Z,40.37
2023-05-11T07:00:58.552Z,41.48
2023-05-11T07:03:29.085Z,42.39
2023-05-11T07:05:59.551Z,42.76
2023-05-11T07:08:30.447Z,41.80
2023-05-11T07:11:03.796Z,40.30
2023-05-11T07:13:34.383Z,39.11
2023-05-11T07:16:04.960Z,38.12
2023-05-11T07:18:35.406Z,37.06
2023-05-11T07:21:05.891Z,36.24
2023-05-11T07:23:36.414Z,35.47
2023-05-11T07:26:08.888Z,34.83
2023-05-11T07:28:39.276Z,34.35
2023-05-11T07:31:10.077Z,33.73
2023-05-11T07:33:40.611Z,32.93
2023-05-11T07:36:11.434Z,32.26
2023-05-11T07:38:41.883Z,31.87
2023-05-11T07:41:13.770Z,31.65
2023-05-11T07:43:44.461Z,31.61
2023-05-11T07:46:15.036Z,31.56
2023-05-11T07:48:45.897Z,31.28
2023-05-11T07:53:20.741Z,30.93
2023-05-11T07:55:51.588Z,30.71
2023-05-11T07:58:23.150Z,30.72
2023-05-11T08:00:53.544Z,30.85
2023-05-11T08:03:23.861Z,31.02
2023-05-11T08:05:54.749Z,31.11
2023-05-11T08:08:26.142Z,31.14
2023-05-11T08:10:58.953Z,31.13
2023-05-11T08:13:29.614Z,31.22
2023-05-11T08:15:59.827Z,31.32
2023-05-11T08:18:32.876Z,31.26
2023-05-11T08:21:03.197Z,31.07
2023-05-11T08:23:33.634Z,30.89
2023-05-11T08:26:05.986Z,30.75
2023-05-11T08:28:36.710Z,30.80
2023-05-11T08:31:08.294Z,30.89
2023-05-11T08:33:39.556Z,31.00
2023-05-11T08:36:13.058Z,30.90
2023-05-11T08:38:43.458Z,30.84
2023-05-11T08:41:14.753Z,30.77
2023-05-11T08:43:47.248Z,30.69
2023-05-11T08:46:22.152Z,30.70
2023-05-11T08:48:52.774Z,30.71
2023-05-11T08:51:25.143Z,30.66
2023-05-11T08:53:57.433Z,30.55
2023-05-11T08:56:31.597Z,30.32
2023-05-11T08:59:02.519Z,30.00
2023-05-11T09:01:33.393Z,29.79
2023-05-11T09:04:05.249Z,29.61
2023-05-11T09:06:37.221Z,29.41
2023-05-11T09:09:08.076Z,29.24
2023-05-11T09:11:38.325Z,29.26
2023-05-11T09:14:08.970Z,29.36
2023-05-11T09:16:39.717Z,29.41
2023-05-11T09:19:16.210Z,29.59
2023-05-11T09:21:46.403Z,29.76
2023-05-11T09:24:17.314Z,29.83
2023-05-11T09:26:48.094Z,29.86
2023-05-11T09:29:21.367Z,29.93
2023-05-11T09:31:51.976Z,29.90
2023-05-11T09:34:23.247Z,29.69
2023-05-11T09:36:54.837Z,29.38
2023-05-11T09:39:38.164Z,28.99
2023-05-11T09:42:16.205Z,28.72
2023-05-11T09:44:47.254Z,28.61
2023-05-11T09:47:19.898Z,28.56
2023-05-11T09:49:50.422Z,28.59
2023-05-11T09:52:21.141Z,28.64
2023-05-11T09:54:52.484Z,28.67
2023-05-11T09:57:27.228Z,28.54
2023-05-11T09:59:59.115Z,28.14
2023-05-11T10:02:30.825Z,27.80
2023-05-11T10:05:10.409Z,27.66
2023-05-11T10:07:40.846Z,27.62
2023-05-11T10:10:12.464Z,27.53
2023-05-11T10:12:43.020Z,27.36
2023-05-11T10:15:16.392Z,27.15
2023-05-11T10:17:50.134Z,26.90
2023-05-11T10:20:22.318Z,26.82
2023-05-11T10:22:54.954Z,26.73
2023-05-11T10:25:26.341Z,26.65
2023-05-11T10:27:57.604Z,26.48
2023-05-11T10:30:30.707Z,26.25
2023-05-11T10:33:04.027Z,26.02
2023-05-11T10:35:34.642Z,25.91
2023-05-11T10:38:07.497Z,25.85
2023-05-11T10:40:40.630Z,25.88
2023-05-11T10:43:41.809Z,25.92
2023-05-11T10:46:30.442Z,25.92
2023-05-11T10:49:15.545Z,25.99
2023-05-11T10:52:03.274Z,26.23
2023-05-11T10:54:48.333Z,26.51
2023-05-11T10:57:32.912Z,26.67
2023-05-11T11:00:50.781Z,26.61
2023-05-11T11:03:21.574Z,26.32
2023-05-11T11:05:52.009Z,26.21
2023-05-11T11:08:22.840Z,26.21
2023-05-11T11:10:53.830Z,26.24
2023-05-11T11:13:24.185Z,26.19
2023-05-11T11:16:16.623Z,25.94
2023-05-11T11:18:47.315Z,25.39
2023-05-11T11:21:41.357Z,25.03
2023-05-11T11:24:47.324Z,24.60
2023-05-11T11:27:17.847Z,24.16
2023-05-11T11:30:19.472Z,23.95
2023-05-11T11:32:54.476Z,23.66
2023-05-11T11:35:55.452Z,23.33
2023-05-11T11:38:27.914Z,23.05
2023-05-11T11:40:59.663Z,22.93
2023-05-11T11:43:44.194Z,22.94
2023-05-11T11:46:27.890Z,23.06
2023-05-11T11:49:09.658Z,23.22
2023-05-11T11:51:40.615Z,23.43
2023-05-11T11:54:12.628Z,23.69
2023-05-11T11:56:49.497Z,23.81
2023-05-11T11:59:21.624Z,23.94
2023-05-11T12:01:56.078Z,23.99
2023-05-11T12:04:50.669Z,23.99
2023-05-11T12:07:23.792Z,23.91
2023-05-11T12:09:54.521Z,23.71
2023-05-11T12:12:25.019Z,23.50
2023-05-11T12:14:55.884Z,23.23
2023-05-11T12:17:27.761Z,23.14
2023-05-11T12:20:13.475Z,23.09
2023-05-11T12:22:44.341Z,22.92
2023-05-11T12:25:17.300Z,22.74
2023-05-11T12:27:54.978Z,22.62
2023-05-11T12:30:26.964Z,22.52
2023-05-11T12:32:59.100Z,22.38
2023-05-11T12:35:32.134Z,22.22
2023-05-11T12:38:03.128Z,22.13
2023-05-11T12:40:33.792Z,22.11
2023-05-11T12:43:04.072Z,22.12
2023-05-11T12:45:34.461Z,22.14
2023-05-11T12:48:05.184Z,22.18
2023-05-11T12:50:42.076Z,22.17
2023-05-11T12:53:15.718Z,22.13
2023-05-11T12:55:55.077Z,22.09
2023-05-11T12:58:25.532Z,21.98
2023-05-11T13:00:58.049Z,21.83
2023-05-11T13:03:31.591Z,21.69
2023-05-11T13:06:12.681Z,21.54
2023-05-11T13:08:46.805Z,21.40
2023-05-11T13:11:26.392Z,21.34
2023-05-11T13:13:57.636Z,21.35
2023-05-11T13:16:29.617Z,21.48
2023-05-11T13:19:01.337Z,21.42
2023-05-11T13:21:32.790Z,21.30
2023-05-11T13:24:03.886Z,21.17
2023-05-11T13:26:34.485Z,21.05
2023-05-11T13:29:10.143Z,20.98
2023-05-11T13:31:45.914Z,20.98
2023-05-11T13:34:19.721Z,20.96
2023-05-11T13:36:50.078Z,20.87
2023-05-11T13:39:21.556Z,20.82
2023-05-11T13:41:52.708Z,20.82
2023-05-11T13:44:24.777Z,20.85
2023-05-11T13:46:55.243Z,20.90
2023-05-11T13:49:25.671Z,20.92
2023-05-11T13:51:56.074Z,20.96
2023-05-11T13:54:26.734Z,20.98
2023-05-11T13:56:57.162Z,21.00
2023-05-11T13:59:28.318Z,20.94
2023-05-11T14:01:58.801Z,20.81
2023-05-11T14:04:30.628Z,20.67
2023-05-11T14:07:03.820Z,20.53
2023-05-11T14:09:37.244Z,20.41
2023-05-11T14:12:09.155Z,20.33
2023-05-11T14:14:39.890Z,20.26
2023-05-11T14:17:11.070Z,20.13
2023-05-11T14:19:41.803Z,20.00
2023-05-11T14:22:12.218Z,19.85
2023-05-11T14:24:42.839Z,19.74
2023-05-11T14:27:13.994Z,19.63
2023-05-11T14:29:45.060Z,19.52
2023-05-11T14:32:15.380Z,19.44
2023-05-11T14:34:47.045Z,19.37
2023-05-11T14:37:17.501Z,19.33
2023-05-11T14:39:47.756Z,19.33
2023-05-11T14:42:18.637Z,19.37
2023-05-11T14:44:49.127Z,19.41
2023-05-11T14:47:19.364Z,19.43
2023-05-11T14:49:51.829Z,19.39
2023-05-11T14:52:24.139Z,19.34
2023-05-11T14:54:54.561Z,19.31
2023-05-11T14:57:25.280Z,19.32
2023-05-11T15:00:00.275Z,19.31
2023-05-11T15:02:31.832Z,19.29
2023-05-11T15:05:03.245Z,19.25
2023-05-11T15:07:36.670Z,19.20
2023-05-11T15:10:08.432Z,19.17
2023-05-11T15:12:41.389Z,19.15
2023-05-11T15:15:12.752Z,19.12
2023-05-11T15:17:43.366Z,19.07
2023-05-11T15:20:14.923Z,19.02
2023-05-11T15:22:45.618Z,18.97
2023-05-11T15:25:21.828Z,18.89
2023-05-11T15:27:52.629Z,18.83
2023-05-11T15:30:23.203Z,18.79
2023-05-11T15:32:57.101Z,18.75
2023-05-11T15:35:30.082Z,18.73
2023-05-11T15:38:02.979Z,18.75
2023-05-11T15:40:34.625Z,18.74
2023-05-11T15:43:06.884Z,18.73
2023-05-11T15:45:43.377Z,18.71
2023-05-11T15:48:14.800Z,18.70
2023-05-11T15:50:46.191Z,18.66
2023-05-11T15:53:24.730Z,18.60
2023-05-11T15:55:55.939Z,18.56
2023-05-11T15:58:26.333Z,18.51
2023-05-11T16:00:58.736Z,18.45
2023-05-11T16:03:29.604Z,18.38
2023-05-11T16:06:00.192Z,18.31
2023-05-11T16:08:30.456Z,18.25
2023-05-11T16:11:01.114Z,18.19
2023-05-11T16:13:45.664Z,18.15
2023-05-11T16:16:16.251Z,18.10
2023-05-11T16:18:47.449Z,18.07
2023-05-11T16:21:17.993Z,18.05
2023-05-11T16:23:48.687Z,18.02
2023-05-11T16:26:19.113Z,18.01
2023-05-11T16:28:49.715Z,18.01
2023-05-11T16:31:20.408Z,18.00
2023-05-11T16:33:53.014Z,17.99
2023-05-11T16:36:23.717Z,17.98
2023-05-11T16:38:55.004Z,17.96
2023-05-11T16:41:29.270Z,17.95
2023-05-11T16:44:01.796Z,17.95
2023-05-11T16:46:33.333Z,17.95
2023-05-11T16:49:03.816Z,17.97
2023-05-11T16:51:34.463Z,17.98
2023-05-11T16:54:06.644Z,18.00
2023-05-11T16:56:37.203Z,18.00
2023-05-11T16:59:08.522Z,18.02
2023-05-11T17:01:42.350Z,18.03
2023-05-11T17:04:13.847Z,18.02
2023-05-11T17:06:44.702Z,18.03
2023-05-11T17:09:15.513Z,18.04
2023-05-11T17:11:47.024Z,18.04
2023-05-11T17:14:17.478Z,18.04
2023-05-11T17:16:49.212Z,18.02
2023-05-11T17:19:22.384Z,17.99
2023-05-11T17:21:54.872Z,17.95
2023-05-11T17:24:26.071Z,17.91
2023-05-11T17:26:56.991Z,17.87
2023-05-11T17:29:30.078Z,17.85
2023-05-11T17:32:05.004Z,17.80
2023-05-11T17:34:35.964Z,17.77
2023-05-11T17:37:08.466Z,17.75
2023-05-11T17:39:53.708Z,17.75
2023-05-11T17:42:24.454Z,17.73
2023-05-11T17:44:56.855Z,17.71
2023-05-11T17:47:27.322Z,17.69
2023-05-11T17:49:57.889Z,17.69
2023-05-11T17:52:28.498Z,17.68
2023-05-11T17:54:58.947Z,17.66
2023-05-11T17:57:29.635Z,17.66
2023-05-11T18:00:01.076Z,17.64
2023-05-11T18:02:32.938Z,17.61
2023-05-11T18:05:07.885Z,17.58
2023-05-11T18:07:59.092Z,17.55
2023-05-11T18:10:32.210Z,17.51
2023-05-11T18:13:04.376Z,17.48
2023-05-11T18:15:36.231Z,17.40
2023-05-11T18:18:07.253Z,17.32
2023-05-11T18:20:39.949Z,17.26
2023-05-11T18:23:10.971Z,17.20
2023-05-11T18:25:41.534Z,17.11
2023-05-11T18:28:14.420Z,17.02
2023-05-11T18:30:47.164Z,16.93
2023-05-11T18:33:24.445Z,16.86
2023-05-11T18:35:58.559Z,16.82
2023-05-11T18:38:31.957Z,16.80
2023-05-11T18:41:07.050Z,16.80
2023-05-11T18:43:37.827Z,16.79
2023-05-11T18:46:12.125Z,16.79
2023-05-11T18:48:43.665Z,16.79
2023-05-11T18:51:18.659Z,16.78
2023-05-11T18:53:49.197Z,16.76
2023-05-11T18:56:22.933Z,16.71
2023-05-11T18:58:53.698Z,16.63
2023-05-11T19:01:36.240Z,16.59
2023-05-11T19:04:29.232Z,16.57
2023-05-11T19:07:06.125Z,16.55
2023-05-11T19:09:37.562Z,16.53
2023-05-11T19:12:10.275Z,16.50
2023-05-11T19:14:43.118Z,16.45
2023-05-11T19:17:14.369Z,16.40
2023-05-11T19:19:45.172Z,16.37
2023-05-11T19:22:20.805Z,16.34
2023-05-11T19:24:53.592Z,16.31
2023-05-11T19:27:23.981Z,16.25
2023-05-11T19:29:58.411Z,16.20
2023-05-11T19:32:31.529Z,16.17
2023-05-11T19:35:02.414Z,16.13
2023-05-11T19:37:38.742Z,16.10
2023-05-11T19:40:43.748Z,16.08
2023-05-11T19:43:02.168Z,16.05
2023-05-11T19:45:33.969Z,16.04
2023-05-11T19:48:05.179Z,16.02
2023-05-11T19:50:36.332Z,15.98
2023-05-11T19:53:09.307Z,15.94
2023-05-11T19:55:41.068Z,15.89
2023-05-11T19:58:13.462Z,15.84
2023-05-11T20:00:49.604Z,15.79
2023-05-11T20:03:20.457Z,15.75
2023-05-11T20:05:55.136Z,15.70
2023-05-11T20:08:26.129Z,15.65
2023-05-11T20:10:56.829Z,15.63
2023-05-11T20:13:31.505Z,15.61
2023-05-11T20:16:08.242Z,15.62
2023-05-11T20:18:43.974Z,15.64
2023-05-11T20:21:16.895Z,15.66
2023-05-11T20:23:47.343Z,15.67
2023-05-11T20:26:18.825Z,15.69
2023-05-11T20:28:51.313Z,15.70
2023-05-11T20:31:23.040Z,15.70
2023-05-11T20:36:33.699Z,15.66
2023-05-11T20:39:06.757Z,15.63
2023-05-11T20:41:37.899Z,15.57
2023-05-11T20:44:13.444Z,15.49
2023-05-11T20:46:44.066Z,15.42
2023-05-11T20:49:30.867Z,15.40
2023-05-11T20:52:10.813Z,15.39
2023-05-11T20:54:42.000Z,15.40
2023-05-11T20:57:12.904Z,15.41
2023-05-11T21:02:18.609Z,15.45
2023-05-11T21:04:50.715Z,15.45
2023-05-11T21:07:22.748Z,15.44
2023-05-11T21:09:53.075Z,15.42
2023-05-11T21:12:24.041Z,15.41
2023-05-11T21:14:56.308Z,15.38
2023-05-11T21:17:27.798Z,15.36
2023-05-11T21:19:58.308Z,15.36
2023-05-11T21:22:29.491Z,15.35
2023-05-11T21:25:01.104Z,15.35
2023-05-11T21:27:31.527Z,15.35
2023-05-11T21:30:03.566Z,15.36
2023-05-11T21:32:35.294Z,15.35
2023-05-11T21:35:06.898Z,15.35
2023-05-11T21:37:37.298Z,15.34
2023-05-11T21:40:16.071Z,15.30
2023-05-11T21:42:58.760Z,15.24
2023-05-11T21:45:39.680Z,15.19
2023-05-11T21:48:17.344Z,15.12
2023-05-11T21:50:55.489Z,15.04
2023-05-11T21:53:34.932Z,14.96
2023-05-11T21:56:19.752Z,14.90
2023-05-11T21:58:53.374Z,14.86
2023-05-11T22:01:31.222Z,14.86
2023-05-11T22:04:07.479Z,14.86
2023-05-11T22:06:46.470Z,14.87
2023-05-11T22:09:20.239Z,14.90
2023-05-11T22:11:52.764Z,14.93
2023-05-11T22:14:25.042Z,14.94
2023-05-11T22:16:55.467Z,14.96
2023-05-11T22:19:26.890Z,14.96
2023-05-11T22:21:57.218Z,14.96
2023-05-11T22:24:27.962Z,14.94
2023-05-11T22:26:59.076Z,14.91
2023-05-11T22:29:32.295Z,14.89
2023-05-11T22:32:02.816Z,14.86
2023-05-11T22:34:33.526Z,14.83
2023-05-11T22:37:04.851Z,14.79
2023-05-11T22:39:35.684Z,14.77
2023-05-11T22:42:07.361Z,14.77
2023-05-11T22:44:37.953Z,14.75
2023-05-11T22:47:09.970Z,14.73
2023-05-11T22:49:41.177Z,14.71
2023-05-11T22:52:11.270Z,14.71
2023-05-11T22:54:41.771Z,14.70
2023-05-11T22:57:14.536Z,14.70
2023-05-11T22:59:46.962Z,14.68
2023-05-11T23:02:18.186Z,14.65
2023-05-11T23:04:52.156Z,14.62
2023-05-11T23:07:22.749Z,14.60
2023-05-11T23:09:56.092Z,14.59
2023-05-11T23:12:26.970Z,14.61
2023-05-11T23:14:58.095Z,14.63
2023-05-11T23:17:28.923Z,14.67
2023-05-11T23:19:59.786Z,14.74
2023-05-11T23:22:30.413Z,14.81
2023-05-11T23:25:02.897Z,14.88
2023-05-11T23:27:33.286Z,14.92
2023-05-11T23:30:03.672Z,14.96
2023-05-11T23:32:34.962Z,15.00
2023-05-11T23:35:07.481Z,15.04
2023-05-11T23:37:38.912Z,15.06
2023-05-11T23:40:10.863Z,15.09
2023-05-11T23:42:42.299Z,15.12
2023-05-11T23:45:13.838Z,15.15
2023-05-11T23:47:44.409Z,15.16
2023-05-11T23:50:15.280Z,15.16
2023-05-11T23:52:45.596Z,15.18
2023-05-11T23:55:18.875Z,15.21
2023-05-11T23:57:49.898Z,15.24
